createdAt,value
2022-10-28T00:01:23.003Z,92.30
2022-10-28T00:03:52.627Z,92.00
2022-10-28T00:06:28.637Z,91.80
2022-10-28T00:08:56.356Z,91.60
2022-10-28T00:11:26.305Z,91.60
2022-10-28T00:13:55.867Z,91.40
2022-10-28T00:16:25.315Z,91.60
2022-10-28T00:18:54.210Z,91.70
2022-10-28T00:21:32.955Z,91.10
2022-10-28T00:23:59.886Z,90.80
2022-10-28T00:26:29.857Z,90.30
2022-10-28T00:29:01.626Z,89.60
2022-10-28T00:31:30.361Z,90.00
2022-10-28T00:33:59.276Z,90.40
2022-10-28T00:36:28.525Z,89.80
2022-10-28T00:38:56.757Z,90.00
2022-10-28T00:41:37.881Z,89.90
2022-10-28T00:44:47.931Z,89.40
2022-10-28T00:47:28.003Z,89.20
2022-10-28T00:50:23.896Z,89.50
2022-10-28T00:52:58.445Z,89.50
2022-10-28T00:55:25.813Z,89.10
2022-10-28T00:57:57.735Z,89.20
2022-10-28T01:00:25.543Z,89.10
2022-10-28T01:02:52.341Z,88.70
2022-10-28T01:05:26.101Z,88.40
2022-10-28T01:07:57.318Z,88.60
2022-10-28T01:10:47.829Z,89.10
2022-10-28T01:13:24.584Z,88.80
2022-10-28T01:16:09.799Z,87.40
2022-10-28T01:18:49.148Z,87.40
2022-10-28T01:21:34.622Z,87.80
2022-10-28T01:24:27.414Z,87.20
2022-10-28T01:27:17.434Z,86.00
2022-10-28T01:30:07.554Z,85.20
2022-10-28T01:32:48.851Z,84.40
2022-10-28T01:35:24.774Z,84.20
2022-10-28T01:38:15.931Z,85.20
2022-10-28T01:40:55.110Z,85.40
2022-10-28T01:43:34.253Z,86.20
2022-10-28T01:46:07.756Z,86.70
2022-10-28T01:48:55.904Z,87.00
2022-10-28T01:51:34.467Z,87.10
2022-10-28T01:54:05.780Z,86.50
2022-10-28T01:56:37.228Z,85.30
2022-10-28T01:59:07.697Z,85.50
2022-10-28T02:01:36.276Z,85.40
2022-10-28T02:04:03.464Z,85.10
2022-10-28T02:06:33.128Z,84.50
2022-10-28T02:09:28.486Z,84.30
2022-10-28T02:12:20.924Z,84.30
2022-10-28T02:15:19.979Z,84.00
2022-10-28T02:18:08.272Z,83.80
2022-10-28T02:20:42.200Z,83.40
2022-10-28T02:23:14.809Z,83.20
2022-10-28T02:25:59.239Z,82.50
2022-10-28T02:28:38.908Z,82.60
2022-10-28T02:31:18.711Z,81.90
2022-10-28T02:33:51.236Z,82.70
2022-10-28T02:36:22.266Z,83.30
2022-10-28T02:38:57.820Z,83.60
2022-10-28T02:41:35.880Z,83.50
2022-10-28T02:44:08.456Z,83.10
2022-10-28T02:46:37.083Z,82.60
2022-10-28T02:49:10.380Z,82.80
2022-10-28T02:51:55.959Z,82.80
2022-10-28T02:54:34.571Z,82.60
2022-10-28T02:57:21.387Z,82.40
2022-10-28T03:00:05.169Z,83.00
2022-10-28T03:02:32.489Z,83.30
2022-10-28T03:04:59.228Z,83.50
2022-10-28T03:07:25.939Z,84.00
2022-10-28T03:09:52.617Z,84.00
2022-10-28T03:12:19.389Z,84.00
2022-10-28T03:14:46.081Z,83.80
2022-10-28T03:17:12.929Z,85.20
2022-10-28T03:19:39.622Z,85.70
2022-10-28T03:22:06.396Z,85.90
2022-10-28T03:24:33.083Z,85.80
2022-10-28T03:26:59.993Z,86.30
2022-10-28T03:29:26.687Z,85.50
2022-10-28T03:31:53.407Z,85.60
2022-10-28T03:34:20.162Z,86.00
2022-10-28T03:36:46.996Z,86.80
2022-10-28T03:39:13.681Z,87.80
2022-10-28T03:41:40.452Z,87.10
2022-10-28T03:44:07.189Z,86.80
2022-10-28T03:46:35.986Z,86.30
2022-10-28T03:49:03.784Z,85.60
2022-10-28T03:51:30.515Z,85.20
2022-10-28T03:53:57.234Z,85.60
2022-10-28T03:56:23.990Z,86.20
2022-10-28T04:01:22.708Z,85.70
2022-10-28T04:03:49.490Z,84.70
2022-10-28T04:06:16.819Z,84.70
2022-10-28T04:08:43.564Z,84.80
2022-10-28T04:11:10.289Z,84.40
2022-10-28T04:13:37.033Z,84.30
2022-10-28T04:16:04.087Z,83.20
2022-10-28T04:18:30.853Z,82.30
2022-10-28T04:20:57.708Z,83.20
2022-10-28T04:23:24.468Z,83.00
2022-10-28T04:25:54.990Z,83.20
2022-10-28T04:28:24.174Z,82.70
2022-10-28T04:30:50.972Z,82.50
2022-10-28T04:33:17.756Z,81.60
2022-10-28T04:35:45.170Z,81.00
2022-10-28T04:38:13.964Z,80.70
2022-10-28T04:40:40.741Z,81.00
2022-10-28T04:43:09.845Z,81.10
2022-10-28T04:45:37.602Z,80.90
2022-10-28T04:48:04.576Z,81.80
2022-10-28T04:50:31.289Z,82.20
2022-10-28T04:52:57.978Z,83.00
2022-10-28T04:55:24.702Z,83.60
2022-10-28T04:57:59.804Z,84.30
2022-10-28T05:00:27.855Z,84.80
2022-10-28T05:02:55.312Z,84.00
2022-10-28T05:05:22.873Z,85.20
2022-10-28T05:07:49.613Z,85.50
2022-10-28T05:10:18.099Z,85.00
2022-10-28T05:12:47.887Z,85.00
2022-10-28T05:15:15.587Z,84.40
2022-10-28T05:17:47.056Z,83.70
2022-10-28T05:20:16.337Z,83.00
2022-10-28T05:22:52.631Z,83.10
2022-10-28T05:25:20.271Z,83.70
2022-10-28T05:27:47.341Z,84.60
2022-10-28T05:30:14.764Z,84.20
2022-10-28T05:32:41.952Z,83.90
2022-10-28T05:35:09.472Z,83.10
2022-10-28T05:37:36.706Z,82.50
2022-10-28T05:40:04.399Z,82.80
2022-10-28T05:42:31.094Z,82.70
2022-10-28T05:44:57.796Z,82.80
2022-10-28T05:47:24.534Z,81.80
2022-10-28T05:49:51.295Z,80.40
2022-10-28T05:52:18.017Z,79.90
2022-10-28T05:54:44.748Z,80.20
2022-10-28T05:57:11.509Z,79.80
2022-10-28T05:59:38.267Z,79.60
2022-10-28T06:02:04.984Z,80.80
2022-10-28T06:04:32.958Z,80.00
2022-10-28T06:06:59.710Z,80.30
2022-10-28T06:09:28.803Z,79.50
2022-10-28T06:11:54.023Z,79.70
2022-10-28T06:14:20.841Z,79.80
2022-10-28T06:16:47.579Z,79.70
2022-10-28T06:19:14.356Z,79.70
2022-10-28T06:21:41.150Z,79.60
2022-10-28T06:24:12.306Z,78.90
2022-10-28T06:26:39.370Z,78.60
2022-10-28T06:29:09.078Z,77.20
2022-10-28T06:31:42.943Z,76.80
2022-10-28T06:34:10.327Z,76.10
2022-10-28T06:36:37.959Z,75.90
2022-10-28T06:39:05.200Z,75.50
2022-10-28T06:41:32.047Z,76.10
2022-10-28T06:43:59.141Z,76.40
2022-10-28T06:46:26.241Z,77.20
2022-10-28T06:48:55.224Z,77.20
2022-10-28T06:51:22.993Z,78.30
2022-10-28T06:53:52.974Z,78.40
2022-10-28T06:56:20.142Z,77.00
2022-10-28T06:58:51.345Z,76.30
2022-10-28T07:01:19.003Z,75.90
2022-10-28T07:03:46.206Z,75.40
2022-10-28T07:08:41.098Z,75.90
2022-10-28T07:11:08.094Z,74.40
2022-10-28T07:13:34.814Z,72.50
2022-10-28T07:16:01.962Z,72.60
2022-10-28T07:18:29.978Z,70.90
2022-10-28T07:21:00.970Z,70.20
2022-10-28T07:23:28.322Z,70.20
2022-10-28T07:25:56.377Z,70.00
2022-10-28T07:28:24.937Z,69.70
2022-10-28T07:30:52.047Z,69.20
2022-10-28T07:33:19.229Z,67.60
2022-10-28T07:35:46.018Z,66.50
2022-10-28T07:38:12.740Z,67.90
2022-10-28T07:40:39.559Z,66.60
2022-10-28T07:43:06.428Z,66.10
2022-10-28T07:45:35.156Z,65.90
2022-10-28T07:48:02.304Z,65.50
2022-10-28T07:50:29.246Z,65.80
2022-10-28T07:52:56.348Z,65.30
2022-10-28T07:55:23.494Z,64.30
2022-10-28T07:57:50.158Z,63.40
2022-10-28T08:00:17.084Z,61.90
2022-10-28T08:02:43.892Z,60.80
2022-10-28T08:05:10.734Z,60.60
2022-10-28T08:07:38.813Z,60.70
2022-10-28T08:10:06.841Z,59.80
2022-10-28T08:12:33.817Z,58.80
2022-10-28T08:15:00.691Z,58.10
2022-10-28T08:17:27.415Z,58.70
2022-10-28T08:19:54.188Z,58.90
2022-10-28T08:22:20.970Z,59.20
2022-10-28T08:24:47.807Z,59.10
2022-10-28T08:27:14.588Z,58.60
2022-10-28T08:29:41.314Z,58.40
2022-10-28T08:32:09.256Z,58.80
2022-10-28T08:34:39.212Z,58.70
2022-10-28T08:37:09.237Z,59.50
2022-10-28T08:39:36.075Z,60.30
2022-10-28T08:42:08.500Z,59.70
2022-10-28T08:44:58.500Z,59.40
2022-10-28T08:47:47.726Z,59.10
2022-10-28T08:50:18.349Z,57.70
2022-10-28T08:52:54.718Z,57.60
2022-10-28T08:55:35.335Z,57.60
2022-10-28T08:58:20.883Z,57.00
2022-10-28T09:00:53.129Z,56.50
2022-10-28T09:03:24.318Z,55.40
2022-10-28T09:06:01.470Z,55.60
2022-10-28T09:08:31.550Z,54.30
2022-10-28T09:11:14.104Z,52.60
2022-10-28T09:13:43.530Z,52.60
2022-10-28T09:16:16.413Z,52.60
2022-10-28T09:18:45.960Z,52.40
2022-10-28T09:21:24.812Z,52.30
2022-10-28T09:23:59.409Z,52.20
2022-10-28T09:26:55.797Z,51.50
2022-10-28T09:29:32.098Z,50.80
2022-10-28T09:32:24.790Z,50.60
2022-10-28T09:35:01.402Z,50.50
2022-10-28T09:37:36.470Z,50.40
2022-10-28T09:40:25.948Z,49.50
2022-10-28T09:43:22.734Z,49.30
2022-10-28T09:45:53.268Z,49.80
2022-10-28T09:48:28.640Z,49.20
2022-10-28T09:50:58.489Z,48.30
2022-10-28T09:53:41.949Z,48.10
2022-10-28T09:56:09.700Z,48.60
2022-10-28T09:58:45.623Z,48.40
2022-10-28T10:01:13.205Z,48.50
2022-10-28T10:03:41.788Z,47.60
2022-10-28T10:06:15.580Z,47.50
2022-10-28T10:08:42.742Z,46.50
2022-10-28T10:11:26.186Z,46.90
2022-10-28T10:13:53.829Z,47.10
2022-10-28T10:16:42.660Z,46.80
2022-10-28T10:19:11.229Z,47.10
2022-10-28T10:21:45.586Z,46.80
2022-10-28T10:24:32.933Z,47.00
2022-10-28T10:27:14.480Z,46.90
2022-10-28T10:29:46.130Z,46.00
2022-10-28T10:32:18.223Z,44.50
2022-10-28T10:34:50.223Z,44.40
2022-10-28T10:37:20.685Z,44.80
2022-10-28T10:40:01.885Z,44.50
2022-10-28T10:42:28.629Z,45.10
2022-10-28T10:45:02.435Z,45.60
2022-10-28T10:47:29.708Z,45.30
2022-10-28T10:50:18.997Z,46.00
2022-10-28T10:52:55.563Z,46.30
2022-10-28T10:55:31.367Z,46.10
2022-10-28T10:57:58.668Z,45.80
2022-10-28T11:00:31.621Z,46.20
2022-10-28T11:02:59.965Z,45.00
2022-10-28T11:05:35.762Z,44.20
2022-10-28T11:08:06.654Z,44.20
2022-10-28T11:10:35.325Z,43.30
2022-10-28T11:13:25.071Z,43.30
2022-10-28T11:16:02.951Z,42.20
2022-10-28T11:18:41.094Z,45.60
2022-10-28T11:21:27.603Z,46.30
2022-10-28T11:24:08.438Z,46.10
2022-10-28T11:26:42.303Z,46.60
2022-10-28T11:29:15.653Z,46.40
2022-10-28T11:32:14.408Z,46.20
2022-10-28T11:35:10.490Z,45.50
2022-10-28T11:38:10.833Z,44.90
2022-10-28T11:40:56.986Z,44.90
2022-10-28T11:43:54.595Z,44.80
2022-10-28T11:47:04.118Z,45.10
2022-10-28T11:49:32.026Z,44.50
2022-10-28T11:52:44.266Z,44.20
2022-10-28T11:55:38.075Z,43.80
2022-10-28T11:58:32.117Z,44.50
2022-10-28T12:01:13.948Z,43.90
2022-10-28T12:03:52.605Z,43.50
2022-10-28T12:06:50.936Z,43.80
2022-10-28T12:09:29.188Z,45.00
2022-10-28T12:12:02.214Z,46.10
2022-10-28T12:14:34.592Z,46.80
2022-10-28T12:17:28.875Z,47.00
2022-10-28T12:20:02.726Z,47.60
2022-10-28T12:22:36.311Z,47.50
2022-10-28T12:25:09.928Z,47.30
2022-10-28T12:27:40.900Z,46.90
2022-10-28T12:30:28.619Z,46.90
2022-10-28T12:33:00.075Z,45.90
2022-10-28T12:35:40.288Z,46.00
2022-10-28T12:38:15.812Z,45.60
2022-10-28T12:41:08.866Z,45.00
2022-10-28T12:43:46.617Z,44.10
2022-10-28T12:49:46.747Z,43.70
2022-10-28T12:52:36.792Z,42.60
2022-10-28T12:57:52.005Z,41.80
2022-10-28T13:00:24.605Z,41.30
2022-10-28T13:03:07.960Z,40.60
2022-10-28T13:06:24.987Z,40.50
2022-10-28T13:09:09.077Z,40.70
2022-10-28T13:11:38.820Z,40.40
2022-10-28T13:14:15.595Z,40.30
2022-10-28T13:16:57.546Z,40.20
2022-10-28T13:19:48.018Z,39.40
2022-10-28T13:22:21.141Z,39.60
2022-10-28T13:25:25.996Z,40.50
2022-10-28T13:27:58.182Z,41.80
2022-10-28T13:30:26.720Z,41.70
2022-10-28T13:33:08.560Z,41.40
2022-10-28T13:35:36.924Z,41.70
2022-10-28T13:38:11.197Z,42.10
2022-10-28T13:40:40.866Z,42.50
2022-10-28T13:43:19.037Z,42.50
2022-10-28T13:45:52.211Z,42.30
2022-10-28T13:48:43.864Z,41.90
2022-10-28T13:51:10.526Z,41.80
2022-10-28T13:53:45.015Z,42.10
2022-10-28T13:56:25.415Z,42.60
2022-10-28T13:58:56.552Z,42.20
2022-10-28T14:01:35.571Z,41.80
2022-10-28T14:04:04.181Z,42.10
2022-10-28T14:06:33.525Z,41.90
2022-10-28T14:09:00.838Z,42.10
2022-10-28T14:11:29.266Z,41.40
2022-10-28T14:14:01.114Z,41.10
2022-10-28T14:16:39.276Z,41.50
2022-10-28T14:19:09.023Z,41.30
2022-10-28T14:22:11.022Z,41.80
2022-10-28T14:24:42.953Z,40.90
2022-10-28T14:27:11.527Z,40.70
2022-10-28T14:29:45.913Z,41.10
2022-10-28T14:32:31.273Z,41.20
2022-10-28T14:35:14.584Z,40.60
2022-10-28T14:37:59.748Z,40.40
2022-10-28T14:40:47.159Z,40.70
2022-10-28T14:43:41.866Z,40.70
2022-10-28T14:46:29.203Z,41.20
2022-10-28T14:48:58.087Z,41.70
2022-10-28T14:51:27.922Z,42.70
2022-10-28T14:53:58.860Z,41.80
2022-10-28T14:56:28.458Z,42.20
2022-10-28T14:59:17.344Z,43.30
2022-10-28T15:01:54.186Z,43.90
2022-10-28T15:04:22.450Z,44.60
2022-10-28T15:06:51.597Z,45.10
2022-10-28T15:09:32.989Z,45.60
2022-10-28T15:12:03.089Z,45.90
2022-10-28T15:14:41.888Z,45.90
2022-10-28T15:17:19.400Z,46.20
2022-10-28T15:19:51.601Z,46.40
2022-10-28T15:22:25.403Z,47.10
2022-10-28T15:25:04.930Z,47.50
2022-10-28T15:27:34.921Z,48.00
2022-10-28T15:30:03.122Z,49.80
2022-10-28T15:32:35.164Z,49.40
2022-10-28T15:35:26.901Z,50.10
2022-10-28T15:37:54.845Z,50.60
2022-10-28T15:40:33.343Z,50.50
2022-10-28T15:43:05.067Z,50.80
2022-10-28T15:45:39.670Z,51.20
2022-10-28T15:48:14.451Z,51.50
2022-10-28T15:50:41.548Z,51.90
2022-10-28T15:53:10.993Z,51.80
2022-10-28T15:56:06.831Z,52.30
2022-10-28T15:58:39.393Z,52.50
2022-10-28T16:01:28.295Z,52.60
2022-10-28T16:03:55.252Z,52.90
2022-10-28T16:06:26.931Z,53.00
2022-10-28T16:09:04.115Z,53.20
2022-10-28T16:11:32.172Z,54.00
2022-10-28T16:14:00.780Z,54.50
2022-10-28T16:16:30.011Z,54.90
2022-10-28T16:19:10.542Z,55.50
2022-10-28T16:21:38.424Z,55.60
2022-10-28T16:24:05.413Z,55.60
2022-10-28T16:26:33.362Z,56.10
2022-10-28T16:29:00.135Z,57.10
2022-10-28T16:31:30.141Z,56.90
2022-10-28T16:33:58.671Z,57.20
2022-10-28T16:36:28.058Z,58.10
2022-10-28T16:38:54.987Z,58.00
2022-10-28T16:41:22.188Z,59.50
2022-10-28T16:43:48.854Z,60.20
2022-10-28T16:46:15.601Z,60.90
2022-10-28T16:48:42.374Z,61.70
2022-10-28T16:51:16.498Z,61.90
2022-10-28T16:53:47.058Z,61.70
2022-10-28T16:56:17.739Z,62.00
2022-10-28T16:58:44.647Z,62.60
2022-10-28T17:01:12.030Z,62.00
2022-10-28T17:03:38.888Z,61.90
2022-10-28T17:06:05.857Z,62.50
2022-10-28T17:09:00.608Z,62.50
2022-10-28T17:11:19.591Z,62.80
2022-10-28T17:13:46.418Z,64.10
2022-10-28T17:16:13.252Z,64.50
2022-10-28T17:18:42.504Z,64.40
2022-10-28T17:21:09.639Z,64.40
2022-10-28T17:23:36.427Z,64.10
2022-10-28T17:26:03.269Z,64.60
2022-10-28T17:28:30.049Z,64.80
2022-10-28T17:31:07.843Z,66.10
2022-10-28T17:33:35.232Z,66.40
2022-10-28T17:36:07.860Z,67.20
2022-10-28T17:38:34.875Z,67.50
2022-10-28T17:41:01.634Z,67.10
2022-10-28T17:43:28.414Z,68.10
2022-10-28T17:46:04.379Z,69.40
2022-10-28T17:48:31.120Z,68.60
2022-10-28T17:50:57.889Z,68.60
2022-10-28T17:53:24.626Z,68.60
2022-10-28T17:55:58.281Z,68.80
2022-10-28T17:58:25.342Z,70.00
2022-10-28T18:01:06.556Z,71.90
2022-10-28T18:03:38.250Z,73.30
2022-10-28T18:06:07.737Z,73.20
2022-10-28T18:08:37.457Z,73.70
2022-10-28T18:11:05.794Z,74.10
2022-10-28T18:13:34.809Z,74.20
2022-10-28T18:16:09.720Z,74.00
2022-10-28T18:18:41.105Z,74.40
2022-10-28T18:21:13.567Z,75.30
2022-10-28T18:23:41.164Z,76.40
2022-10-28T18:26:11.780Z,76.80
2022-10-28T18:28:39.269Z,78.20
2022-10-28T18:31:10.055Z,78.70
2022-10-28T18:33:36.870Z,79.60
2022-10-28T18:36:06.904Z,80.40
2022-10-28T18:38:34.066Z,80.70
2022-10-28T18:41:00.800Z,82.00
2022-10-28T18:43:27.920Z,82.90
2022-10-28T18:45:55.105Z,82.60
2022-10-28T18:48:21.782Z,82.50
2022-10-28T18:50:56.474Z,83.00
2022-10-28T18:53:23.296Z,83.50
2022-10-28T18:55:50.018Z,84.30
2022-10-28T18:58:17.323Z,84.00
2022-10-28T19:00:44.022Z,84.30
2022-10-28T19:03:22.266Z,84.00
2022-10-28T19:05:49.540Z,84.50
2022-10-28T19:08:16.234Z,84.70
2022-10-28T19:10:42.994Z,85.20
2022-10-28T19:13:09.763Z,85.90
2022-10-28T19:15:42.013Z,86.40
2022-10-28T19:18:08.768Z,86.90
2022-10-28T19:20:35.525Z,87.40
2022-10-28T19:23:02.517Z,88.40
2022-10-28T19:25:29.313Z,88.60
2022-10-28T19:27:57.665Z,89.40
2022-10-28T19:30:24.454Z,89.40
2022-10-28T19:32:51.235Z,89.20
2022-10-28T19:35:18.110Z,89.90
2022-10-28T19:37:44.844Z,90.20
2022-10-28T19:40:11.677Z,90.20
2022-10-28T19:42:39.645Z,90.40
2022-10-28T19:45:07.072Z,90.90
2022-10-28T19:47:33.755Z,90.50
2022-10-28T19:50:00.454Z,90.50
2022-10-28T19:52:27.183Z,90.50
2022-10-28T19:54:53.891Z,90.80
2022-10-28T19:57:20.573Z,91.00
2022-10-28T19:59:47.307Z,91.00
2022-10-28T20:02:14.103Z,91.20
2022-10-28T20:04:40.839Z,91.80
2022-10-28T20:07:07.561Z,91.50
2022-10-28T20:09:34.267Z,91.50
2022-10-28T20:12:01.883Z,91.80
2022-10-28T20:14:29.175Z,92.00
2022-10-28T20:16:55.963Z,92.40
2022-10-28T20:19:22.711Z,92.40
2022-10-28T20:21:50.787Z,92.60
2022-10-28T20:24:17.587Z,92.40
2022-10-28T20:26:44.287Z,92.60
2022-10-28T20:29:10.965Z,92.60
2022-10-28T20:31:39.064Z,92.40
2022-10-28T20:34:06.792Z,92.00
2022-10-28T20:36:34.691Z,91.80
2022-10-28T20:39:09.537Z,91.40
2022-10-28T20:41:37.957Z,91.60
2022-10-28T20:44:05.371Z,92.10
2022-10-28T20:46:32.563Z,92.40
2022-10-28T20:49:00.783Z,92.40
2022-10-28T20:51:29.697Z,92.50
2022-10-28T20:53:56.848Z,92.40
2022-10-28T20:56:28.663Z,92.40
2022-10-28T20:58:56.109Z,92.60
2022-10-28T21:01:24.351Z,92.70
2022-10-28T21:03:54.762Z,92.80
2022-10-28T21:06:21.839Z,92.80
2022-10-28T21:08:48.648Z,92.90
2022-10-28T21:11:16.483Z,93.20
2022-10-28T21:13:44.018Z,93.50
2022-10-28T21:16:12.034Z,93.80
2022-10-28T21:18:39.891Z,93.80
2022-10-28T21:21:07.015Z,94.20
2022-10-28T21:23:34.124Z,94.60
2022-10-28T21:26:06.208Z,95.20
2022-10-28T21:28:33.854Z,95.20
2022-10-28T21:31:09.405Z,95.00
2022-10-28T21:33:37.745Z,95.20
2022-10-28T21:36:11.332Z,95.70
2022-10-28T21:38:38.341Z,96.20
2022-10-28T21:41:10.872Z,96.20
2022-10-28T21:43:40.285Z,96.20
2022-10-28T21:46:07.906Z,96.00
2022-10-28T21:48:35.874Z,95.80
2022-10-28T21:51:07.227Z,95.90
2022-10-28T21:53:38.015Z,96.00
2022-10-28T21:56:06.771Z,95.70
2022-10-28T21:58:36.402Z,96.20
2022-10-28T22:01:07.716Z,96.30
2022-10-28T22:03:34.798Z,96.70
2022-10-28T22:06:01.587Z,96.70
2022-10-28T22:08:28.503Z,96.60
2022-10-28T22:11:06.766Z,96.50
2022-10-28T22:13:34.417Z,96.40
2022-10-28T22:16:03.499Z,96.10
2022-10-28T22:18:32.128Z,96.00
2022-10-28T22:21:05.346Z,95.90
2022-10-28T22:23:32.322Z,96.20
2022-10-28T22:26:03.032Z,96.50
2022-10-28T22:28:29.810Z,96.60
2022-10-28T22:31:00.841Z,96.80
2022-10-28T22:33:27.664Z,96.80
2022-10-28T22:36:05.928Z,96.70
2022-10-28T22:38:32.932Z,96.80
2022-10-28T22:41:11.714Z,96.80
2022-10-28T22:43:39.462Z,96.80
2022-10-28T22:46:07.173Z,97.10
2022-10-28T22:48:37.436Z,97.00
2022-10-28T22:51:05.012Z,96.90
2022-10-28T22:53:32.231Z,97.00
2022-10-28T22:55:58.945Z,97.30
2022-10-28T22:58:26.607Z,97.30
2022-10-28T23:00:53.549Z,97.50
2022-10-28T23:03:20.481Z,97.20
2022-10-28T23:05:47.259Z,97.30
2022-10-28T23:08:16.772Z,97.00
2022-10-28T23:10:43.522Z,96.40
2022-10-28T23:13:12.689Z,95.90
2022-10-28T23:15:39.543Z,95.70
2022-10-28T23:18:06.266Z,95.70
2022-10-28T23:20:35.682Z,95.50
2022-10-28T23:23:02.428Z,95.40
2022-10-28T23:25:29.278Z,95.30
2022-10-28T23:27:56.315Z,95.30
2022-10-28T23:30:23.210Z,95.20
2022-10-28T23:32:49.959Z,95.30
2022-10-28T23:35:17.540Z,95.50
2022-10-28T23:37:44.265Z,95.70
2022-10-28T23:40:11.482Z,95.80
2022-10-28T23:42:38.160Z,95.90
2022-10-28T23:45:05.473Z,95.50
2022-10-28T23:47:32.135Z,95.70
2022-10-28T23:49:58.947Z,95.60
2022-10-28T23:52:25.744Z,95.70
2022-10-28T23:54:52.461Z,96.00
2022-10-28T23:57:19.141Z,96.30
2022-10-28T23:59:45.880Z,96.20
